createdAt,value
2023-07-03T00:01:23.120Z,5.25
2023-07-03T00:06:26.777Z,5.15
2023-07-03T00:11:31.680Z,5.88
2023-07-03T00:16:35.235Z,5.38
2023-07-03T00:21:44.375Z,4.65
2023-07-03T00:26:49.237Z,5.78
2023-07-03T00:31:53.118Z,5.20
2023-07-03T00:36:57.096Z,5.15
2023-07-03T00:42:01.996Z,4.55
2023-07-03T00:47:05.747Z,4.80
2023-07-03T00:52:12.272Z,4.03
2023-07-03T00:57:18.446Z,4.75
2023-07-03T01:02:28.009Z,5.13
2023-07-03T01:07:34.996Z,4.07
2023-07-03T01:12:43.792Z,4.15
2023-07-03T01:17:51.847Z,4.22
2023-07-03T01:23:04.943Z,6.07
2023-07-03T01:28:14.724Z,5.05
2023-07-03T01:33:22.813Z,4.90
2023-07-03T01:38:28.109Z,5.15
2023-07-03T01:43:33.080Z,4.65
2023-07-03T01:48:37.406Z,5.75
2023-07-03T01:53:48.080Z,5.82
2023-07-03T01:58:56.883Z,5.13
2023-07-03T02:04:06.401Z,5.22
2023-07-03T02:09:11.149Z,4.72
2023-07-03T02:14:21.096Z,5.72
2023-07-03T02:19:30.230Z,5.03
2023-07-03T02:24:33.869Z,5.57
2023-07-03T02:29:38.769Z,4.78
2023-07-03T02:34:43.822Z,5.05
2023-07-03T02:39:47.337Z,5.10
2023-07-03T02:44:52.541Z,5.97
2023-07-03T02:49:56.427Z,5.05
2023-07-03T02:55:01.662Z,5.50
2023-07-03T03:00:08.452Z,6.13
2023-07-03T03:05:14.526Z,5.93
2023-07-03T03:10:19.392Z,5.95
2023-07-03T03:15:24.542Z,6.50
2023-07-03T03:20:28.414Z,6.40
2023-07-03T03:25:32.070Z,6.30
2023-07-03T03:30:37.234Z,6.88
2023-07-03T03:35:40.856Z,7.05
2023-07-03T03:40:54.416Z,6.97
2023-07-03T03:46:02.429Z,7.10
2023-07-03T03:51:07.326Z,6.90
2023-07-03T03:56:12.368Z,6.68
2023-07-03T04:01:18.960Z,7.60
2023-07-03T04:06:22.908Z,8.10
2023-07-03T04:11:26.612Z,6.88
2023-07-03T04:16:34.148Z,6.40
2023-07-03T04:21:40.196Z,6.90
2023-07-03T04:26:43.759Z,6.82
2023-07-03T04:31:48.714Z,6.47
2023-07-03T04:36:52.488Z,7.32
2023-07-03T04:41:57.343Z,6.32
2023-07-03T04:47:06.015Z,6.38
2023-07-03T04:52:10.368Z,7.07
2023-07-03T04:57:13.953Z,7.00
2023-07-03T05:02:19.319Z,6.70
2023-07-03T05:07:24.595Z,7.40
2023-07-03T05:12:28.350Z,7.40
2023-07-03T05:17:36.120Z,8.15
2023-07-03T05:22:40.489Z,8.15
2023-07-03T05:27:44.362Z,8.25
2023-07-03T05:32:49.413Z,7.70
2023-07-03T05:37:53.020Z,7.82
2023-07-03T05:42:56.604Z,6.88
2023-07-03T05:48:01.884Z,7.65
2023-07-03T05:53:05.444Z,7.65
2023-07-03T05:58:09.138Z,8.23
2023-07-03T06:03:14.153Z,7.25
2023-07-03T06:08:17.767Z,7.53
2023-07-03T06:13:21.274Z,7.57
2023-07-03T06:18:26.461Z,7.07
2023-07-03T06:23:30.014Z,7.35
2023-07-03T06:28:33.506Z,6.60
2023-07-03T06:33:38.552Z,8.25
2023-07-03T06:38:42.194Z,7.25
2023-07-03T06:43:45.744Z,6.35
2023-07-03T06:48:51.268Z,6.68
2023-07-03T06:53:55.182Z,7.53
2023-07-03T06:58:58.719Z,6.70
2023-07-03T07:04:03.699Z,6.88
2023-07-03T07:09:07.225Z,7.20
2023-07-03T07:14:10.784Z,8.15
2023-07-03T07:19:15.703Z,6.90
2023-07-03T07:24:21.402Z,6.13
2023-07-03T07:29:26.275Z,6.05
2023-07-03T07:34:31.269Z,6.82
2023-07-03T07:39:34.830Z,6.15
2023-07-03T07:44:38.342Z,6.65
2023-07-03T07:49:44.547Z,6.50
2023-07-03T07:54:49.240Z,6.60
2023-07-03T07:59:53.392Z,5.55
2023-07-03T08:04:58.676Z,6.05
2023-07-03T08:10:02.382Z,5.75
2023-07-03T08:15:07.155Z,4.57
2023-07-03T08:20:13.328Z,5.05
2023-07-03T08:25:17.216Z,6.10
2023-07-03T08:30:23.207Z,5.35
2023-07-03T08:40:34.614Z,4.68
2023-07-03T08:45:42.201Z,4.07
2023-07-03T08:50:51.124Z,4.30
2023-07-03T08:55:58.822Z,4.05
2023-07-03T09:01:10.064Z,4.35
2023-07-03T09:06:20.947Z,4.03
2023-07-03T09:11:27.245Z,3.95
2023-07-03T09:16:31.104Z,3.47
2023-07-03T09:21:38.465Z,3.38
2023-07-03T09:26:48.685Z,4.47
2023-07-03T09:31:54.200Z,4.97
2023-07-03T09:37:02.868Z,4.18
2023-07-03T09:42:09.137Z,4.57
2023-07-03T09:47:23.060Z,4.97
2023-07-03T09:52:28.328Z,8.57
2023-07-03T09:57:31.880Z,4.25
2023-07-03T10:07:46.051Z,3.72
2023-07-03T10:12:58.717Z,3.92
2023-07-03T10:18:05.824Z,2.75
2023-07-03T10:23:14.055Z,3.38
2023-07-03T10:28:24.091Z,2.70
2023-07-03T10:33:33.666Z,2.92
2023-07-03T10:38:45.668Z,2.58
2023-07-03T10:43:54.864Z,3.00
2023-07-03T10:49:04.864Z,3.38
2023-07-03T10:54:17.285Z,2.25
2023-07-03T10:59:24.690Z,2.92
2023-07-03T11:04:38.092Z,3.67
2023-07-03T11:09:47.265Z,2.70
2023-07-03T11:15:04.780Z,3.47
2023-07-03T11:20:14.194Z,3.75
2023-07-03T11:25:23.972Z,2.80
2023-07-03T11:30:28.228Z,3.30
2023-07-03T11:41:01.577Z,3.03
2023-07-03T11:46:12.010Z,3.25
2023-07-03T11:51:17.365Z,4.63
2023-07-03T11:56:51.073Z,3.03
2023-07-03T12:02:15.983Z,3.35
2023-07-03T12:07:48.896Z,3.30
2023-07-03T12:13:25.393Z,3.33
2023-07-03T12:18:30.644Z,3.85
2023-07-03T12:23:36.635Z,2.72
2023-07-03T12:28:42.299Z,2.75
2023-07-03T12:33:55.892Z,2.60
2023-07-03T12:39:00.924Z,3.50
2023-07-03T12:44:08.729Z,2.03
2023-07-03T12:49:18.070Z,2.10
2023-07-03T12:54:23.147Z,2.42
2023-07-03T12:59:28.299Z,2.03
2023-07-03T13:04:35.544Z,2.17
2023-07-03T13:09:44.701Z,1.83
2023-07-03T13:15:08.552Z,2.13
2023-07-03T13:20:19.790Z,2.28
2023-07-03T13:25:26.216Z,2.08
2023-07-03T13:30:35.713Z,1.95
2023-07-03T13:35:44.010Z,1.85
2023-07-03T13:40:48.732Z,1.52
2023-07-03T13:45:54.121Z,2.70
2023-07-03T13:50:59.155Z,1.95
2023-07-03T13:56:02.669Z,1.88
2023-07-03T14:01:20.819Z,1.27
2023-07-03T14:06:30.405Z,1.08
2023-07-03T14:11:33.942Z,1.23
2023-07-03T14:16:37.428Z,1.52
2023-07-03T14:21:42.324Z,1.50
2023-07-03T14:26:45.964Z,1.73
2023-07-03T14:31:50.510Z,1.73
2023-07-03T14:36:55.759Z,1.35
2023-07-03T14:42:00.053Z,1.35
2023-07-03T14:47:04.211Z,1.70
2023-07-03T14:52:09.442Z,1.90
2023-07-03T14:57:13.286Z,1.65
2023-07-03T15:02:16.808Z,1.55
2023-07-03T15:07:21.730Z,2.22
2023-07-03T15:12:26.110Z,1.83
2023-07-03T15:17:29.729Z,1.83
2023-07-03T15:22:34.714Z,2.13
2023-07-03T15:27:38.235Z,1.88
2023-07-03T15:32:41.826Z,1.88
2023-07-03T15:37:46.896Z,1.95
2023-07-03T15:42:50.554Z,2.17
2023-07-03T15:47:54.403Z,1.67
2023-07-03T15:52:59.379Z,1.92
2023-07-03T15:58:03.047Z,3.08
2023-07-03T16:03:06.805Z,1.75
2023-07-03T16:08:11.683Z,1.90
2023-07-03T16:13:15.332Z,2.47
2023-07-03T16:18:18.864Z,1.80
2023-07-03T16:23:23.893Z,2.20
2023-07-03T16:28:27.611Z,5.75
2023-07-03T16:33:32.611Z,2.33
2023-07-03T16:38:37.683Z,2.72
2023-07-03T16:43:43.205Z,2.60
2023-07-03T16:48:48.017Z,2.60
2023-07-03T16:53:53.066Z,2.03
2023-07-03T16:58:59.342Z,2.63
2023-07-03T17:04:03.330Z,2.78
2023-07-03T17:09:08.297Z,2.72
2023-07-03T17:14:11.916Z,2.72
2023-07-03T17:19:15.478Z,2.67
2023-07-03T17:24:20.379Z,2.88
2023-07-03T17:29:23.917Z,2.72
2023-07-03T17:34:27.974Z,2.30
2023-07-03T17:39:33.045Z,3.13
2023-07-03T17:44:36.597Z,2.80
2023-07-03T17:49:40.144Z,3.22
2023-07-03T17:54:45.396Z,2.55
2023-07-03T17:59:48.909Z,2.42
2023-07-03T18:04:53.227Z,2.72
2023-07-03T18:09:58.281Z,2.80
2023-07-03T18:15:01.811Z,2.83
2023-07-03T18:20:05.854Z,3.45
2023-07-03T18:25:11.210Z,2.72
2023-07-03T18:30:14.943Z,2.88
2023-07-03T18:35:18.550Z,3.03
2023-07-03T18:40:23.520Z,3.40
2023-07-03T18:45:27.037Z,3.00
2023-07-03T18:50:30.940Z,3.17
2023-07-03T18:55:35.990Z,3.70
2023-07-03T19:00:39.554Z,3.85
2023-07-03T19:05:50.664Z,3.88
2023-07-03T19:10:56.143Z,4.40
2023-07-03T19:15:59.720Z,3.40
2023-07-03T19:21:03.470Z,3.33
2023-07-03T19:26:10.297Z,3.33
2023-07-03T19:31:14.025Z,3.25
2023-07-03T19:36:21.334Z,3.17
2023-07-03T19:41:26.389Z,3.05
2023-07-03T19:46:30.442Z,3.00
2023-07-03T19:51:33.956Z,2.70
2023-07-03T19:56:39.721Z,3.25
2023-07-03T20:01:43.855Z,2.92
2023-07-03T20:06:47.374Z,2.60
2023-07-03T20:11:52.366Z,2.80
2023-07-03T20:16:56.000Z,3.05
2023-07-03T20:21:59.559Z,2.50
2023-07-03T20:27:05.417Z,3.47
2023-07-03T20:32:09.506Z,3.17
2023-07-03T20:37:14.464Z,3.42
2023-07-03T20:42:19.332Z,2.88
2023-07-03T20:47:22.955Z,3.08
2023-07-03T20:52:28.303Z,2.10
2023-07-03T20:57:34.513Z,2.35
2023-07-03T21:02:40.754Z,2.83
2023-07-03T21:07:44.324Z,2.38
2023-07-03T21:12:49.254Z,2.22
2023-07-03T21:18:00.032Z,2.00
2023-07-03T21:23:03.661Z,2.40
2023-07-03T21:28:08.605Z,2.95
2023-07-03T21:33:12.479Z,2.80
2023-07-03T21:38:16.004Z,2.78
2023-07-03T21:43:21.109Z,2.50
2023-07-03T21:48:24.726Z,3.30
2023-07-03T21:53:28.759Z,2.40
2023-07-03T21:58:33.889Z,2.53
2023-07-03T22:03:37.502Z,2.30
2023-07-03T22:08:41.037Z,1.52
2023-07-03T22:13:46.062Z,2.05
2023-07-03T22:18:50.242Z,1.55
2023-07-03T22:23:53.952Z,1.60
2023-07-03T22:28:58.969Z,1.45
2023-07-03T22:34:02.693Z,1.15
2023-07-03T22:39:06.208Z,1.20
2023-07-03T22:44:11.179Z,1.67
2023-07-03T22:49:24.546Z,1.00
2023-07-03T22:54:29.313Z,1.60
2023-07-03T22:59:34.254Z,1.20
2023-07-03T23:04:37.773Z,1.90
2023-07-03T23:09:43.990Z,1.65
2023-07-03T23:14:51.235Z,1.90
2023-07-03T23:19:55.048Z,2.40
2023-07-03T23:24:59.834Z,2.05
2023-07-03T23:30:06.357Z,2.50
2023-07-03T23:35:12.140Z,2.17
2023-07-03T23:40:16.057Z,2.70
2023-07-03T23:45:21.160Z,2.10
2023-07-03T23:50:24.643Z,2.50
2023-07-03T23:55:28.121Z,2.05
